createdAt,value
2022-08-16T00:00:22.193Z,8.93
2022-08-16T00:02:54.021Z,9.65
2022-08-16T00:05:25.284Z,8.48
2022-08-16T00:07:59.074Z,10.27
2022-08-16T00:10:33.336Z,9.18
2022-08-16T00:13:03.756Z,9.93
2022-08-16T00:15:51.887Z,10.25
2022-08-16T00:18:29.498Z,8.05
2022-08-16T00:21:00.878Z,8.52
2022-08-16T00:23:34.644Z,9.25
2022-08-16T00:26:36.487Z,9.93
2022-08-16T00:29:00.975Z,8.02
2022-08-16T00:32:00.065Z,8.48
2022-08-16T00:34:44.028Z,10.10
2022-08-16T00:37:20.276Z,8.18
2022-08-16T00:39:57.248Z,10.38
2022-08-16T00:42:31.645Z,10.20
2022-08-16T00:45:15.057Z,9.15
2022-08-16T00:47:50.488Z,13.20
2022-08-16T00:50:36.018Z,9.55
2022-08-16T00:53:08.253Z,8.85
2022-08-16T00:55:40.182Z,10.40
2022-08-16T00:58:13.040Z,12.50
2022-08-16T01:00:54.006Z,11.98
2022-08-16T01:03:31.685Z,11.18
2022-08-16T01:06:39.584Z,13.18
2022-08-16T01:08:59.899Z,16.23
2022-08-16T01:11:31.014Z,12.18
2022-08-16T01:14:09.234Z,14.70
2022-08-16T01:16:41.106Z,14.05
2022-08-16T01:19:23.457Z,14.68
2022-08-16T01:22:48.318Z,13.70
2022-08-16T01:24:56.844Z,14.18
2022-08-16T01:27:34.577Z,14.27
2022-08-16T01:30:19.327Z,14.25
2022-08-16T01:33:01.601Z,14.25
2022-08-16T01:35:47.351Z,14.13
2022-08-16T01:38:28.490Z,12.80
2022-08-16T01:41:03.911Z,14.27
2022-08-16T01:43:34.865Z,19.25
2022-08-16T01:46:29.704Z,11.45
2022-08-16T01:49:02.949Z,11.65
2022-08-16T01:51:34.011Z,14.50
2022-08-16T01:54:10.003Z,13.10
2022-08-16T01:56:46.223Z,12.13
2022-08-16T01:59:19.387Z,14.68
2022-08-16T02:04:49.587Z,15.30
2022-08-16T02:07:23.950Z,14.57
2022-08-16T02:09:56.978Z,16.90
2022-08-16T02:12:43.569Z,14.43
2022-08-16T02:15:25.344Z,14.27
2022-08-16T02:17:56.226Z,16.83
2022-08-16T02:22:58.490Z,14.85
2022-08-16T02:25:51.221Z,17.02
2022-08-16T02:28:24.807Z,18.40
2022-08-16T02:30:55.697Z,13.38
2022-08-16T02:33:42.784Z,13.65
2022-08-16T02:36:47.753Z,13.55
2022-08-16T02:39:10.107Z,14.05
2022-08-16T02:41:42.734Z,13.85
2022-08-16T02:44:16.435Z,13.05
2022-08-16T02:46:53.686Z,14.70
2022-08-16T02:49:32.207Z,12.50
2022-08-16T02:52:17.223Z,13.07
2022-08-16T02:54:59.577Z,13.98
2022-08-16T02:57:31.115Z,13.20
2022-08-16T03:00:33.908Z,13.73
2022-08-16T03:02:58.929Z,13.32
2022-08-16T03:05:30.879Z,12.02
2022-08-16T03:08:01.998Z,15.82
2022-08-16T03:10:33.695Z,12.77
2022-08-16T03:13:12.255Z,15.98
2022-08-16T03:15:45.859Z,16.77
2022-08-16T03:18:34.665Z,16.70
2022-08-16T03:23:44.164Z,16.63
2022-08-16T03:26:15.336Z,15.90
2022-08-16T03:28:51.399Z,14.30
2022-08-16T03:31:25.650Z,15.10
2022-08-16T03:34:05.014Z,16.00
2022-08-16T03:36:35.626Z,14.10
2022-08-16T03:39:06.319Z,13.38
2022-08-16T03:41:50.255Z,14.15
2022-08-16T03:44:44.042Z,15.43
2022-08-16T03:47:19.191Z,13.45
2022-08-16T03:52:23.458Z,19.15
2022-08-16T03:54:57.912Z,16.00
2022-08-16T03:57:31.933Z,18.23
2022-08-16T04:00:35.322Z,16.52
2022-08-16T04:03:09.830Z,14.98
2022-08-16T04:05:46.764Z,15.23
2022-08-16T04:08:23.794Z,18.08
2022-08-16T04:10:57.878Z,16.67
2022-08-16T04:14:00.062Z,17.02
2022-08-16T04:16:27.383Z,18.42
2022-08-16T04:19:04.369Z,15.60
2022-08-16T04:21:35.586Z,16.38
2022-08-16T04:24:07.901Z,14.98
2022-08-16T04:26:46.181Z,16.50
2022-08-16T04:29:21.747Z,14.10
2022-08-16T04:31:58.068Z,15.27
2022-08-16T04:34:33.589Z,16.40
2022-08-16T04:37:04.229Z,20.08
2022-08-16T04:39:46.648Z,20.83
2022-08-16T04:42:19.000Z,19.40
2022-08-16T04:44:58.599Z,19.70
2022-08-16T04:47:35.962Z,16.42
2022-08-16T04:50:12.009Z,15.27
2022-08-16T04:52:47.224Z,17.95
2022-08-16T04:55:21.287Z,17.00
2022-08-16T04:58:02.890Z,14.75
2022-08-16T05:00:53.028Z,13.60
2022-08-16T05:03:23.475Z,17.20
2022-08-16T05:05:59.816Z,16.15
2022-08-16T05:08:36.429Z,16.58
2022-08-16T05:11:09.965Z,16.98
2022-08-16T05:13:45.187Z,15.30
2022-08-16T05:16:21.425Z,18.15
2022-08-16T05:18:56.909Z,18.15
2022-08-16T05:21:38.205Z,15.40
2022-08-16T05:24:10.388Z,16.08
2022-08-16T05:26:43.266Z,13.60
2022-08-16T05:29:20.492Z,16.65
2022-08-16T05:31:52.994Z,14.93
2022-08-16T05:34:25.250Z,14.90
2022-08-16T05:36:58.832Z,13.73
2022-08-16T05:39:29.739Z,14.38
2022-08-16T05:42:03.797Z,14.93
2022-08-16T05:44:33.819Z,11.43
2022-08-16T05:47:04.990Z,15.38
2022-08-16T05:49:39.555Z,17.92
2022-08-16T05:52:17.326Z,15.57
2022-08-16T05:55:01.294Z,15.57
2022-08-16T05:57:35.439Z,14.38
2022-08-16T06:00:09.331Z,13.10
2022-08-16T06:02:40.682Z,13.32
2022-08-16T06:05:11.885Z,17.20
2022-08-16T06:07:58.312Z,15.02
2022-08-16T06:10:32.911Z,15.05
2022-08-16T06:13:03.781Z,18.00
2022-08-16T06:15:33.906Z,14.13
2022-08-16T06:18:05.445Z,18.52
2022-08-16T06:20:36.883Z,14.07
2022-08-16T06:26:03.049Z,10.43
2022-08-16T06:28:38.471Z,15.50
2022-08-16T06:31:12.330Z,13.98
2022-08-16T06:33:44.928Z,11.70
2022-08-16T06:36:16.812Z,15.90
2022-08-16T06:38:55.836Z,12.98
2022-08-16T06:41:27.795Z,13.43
2022-08-16T06:43:58.191Z,13.25
2022-08-16T06:49:05.477Z,12.95
2022-08-16T06:51:48.163Z,16.83
2022-08-16T06:56:53.962Z,19.05
2022-08-16T06:59:25.802Z,13.25
2022-08-16T07:01:56.404Z,12.55
2022-08-16T07:04:32.445Z,18.42
2022-08-16T07:07:03.537Z,16.85
2022-08-16T07:09:36.132Z,15.00
2022-08-16T07:12:07.687Z,14.70
2022-08-16T07:14:37.869Z,18.42
2022-08-16T07:17:12.651Z,16.30
2022-08-16T07:20:29.533Z,21.75
2022-08-16T07:22:38.742Z,14.48
2022-08-16T07:27:56.279Z,23.85
2022-08-16T07:30:45.402Z,28.40
2022-08-16T07:33:21.380Z,17.10
2022-08-16T07:36:09.662Z,15.48
2022-08-16T07:38:40.311Z,19.40
2022-08-16T07:41:13.741Z,20.27
2022-08-16T07:43:46.263Z,20.17
2022-08-16T07:46:39.299Z,17.42
2022-08-16T07:49:11.528Z,18.77
2022-08-16T07:51:42.243Z,14.82
2022-08-16T07:54:21.399Z,15.43
2022-08-16T07:57:05.370Z,16.17
2022-08-16T07:59:42.685Z,13.07
2022-08-16T08:02:14.222Z,11.05
2022-08-16T08:04:51.253Z,12.68
2022-08-16T08:07:21.722Z,11.98
2022-08-16T08:09:53.225Z,16.33
2022-08-16T08:15:09.811Z,12.38
2022-08-16T08:17:42.726Z,11.65
2022-08-16T08:20:20.771Z,13.15
2022-08-16T08:23:01.293Z,11.45
2022-08-16T08:25:53.712Z,11.15
2022-08-16T08:28:26.426Z,13.88
2022-08-16T08:31:00.908Z,14.80
2022-08-16T08:33:32.237Z,11.10
2022-08-16T08:36:08.587Z,11.23
2022-08-16T08:38:44.939Z,13.95
2022-08-16T08:41:18.957Z,13.27
2022-08-16T08:43:52.653Z,12.23
2022-08-16T08:46:22.929Z,16.00
2022-08-16T08:48:59.869Z,11.60
2022-08-16T08:51:36.887Z,11.55
2022-08-16T08:54:09.656Z,9.05
2022-08-16T08:56:45.812Z,10.77
2022-08-16T09:01:56.522Z,7.13
2022-08-16T09:04:28.924Z,10.00
2022-08-16T09:07:01.332Z,10.13
2022-08-16T09:09:33.674Z,13.52
2022-08-16T09:12:06.777Z,8.82
2022-08-16T09:14:50.927Z,12.13
2022-08-16T09:17:45.669Z,8.82
2022-08-16T09:20:14.525Z,10.73
2022-08-16T09:22:51.422Z,11.18
2022-08-16T09:25:26.402Z,8.00
2022-08-16T09:28:09.245Z,8.38
2022-08-16T09:30:44.276Z,9.60
2022-08-16T09:33:20.489Z,10.60
2022-08-16T09:38:32.063Z,10.27
2022-08-16T09:41:04.229Z,9.52
2022-08-16T09:43:59.614Z,9.25
2022-08-16T09:46:45.578Z,11.00
2022-08-16T09:49:19.713Z,13.68
2022-08-16T09:51:53.680Z,7.30
2022-08-16T09:54:24.106Z,13.70
2022-08-16T09:57:02.929Z,8.40
2022-08-16T09:59:38.856Z,11.35
2022-08-16T10:02:26.155Z,8.93
2022-08-16T10:04:59.014Z,8.63
2022-08-16T10:07:44.505Z,7.25
2022-08-16T10:10:18.987Z,7.65
2022-08-16T10:13:14.243Z,6.97
2022-08-16T10:15:53.343Z,11.00
2022-08-16T10:18:56.308Z,9.80
2022-08-16T10:21:20.754Z,6.22
2022-08-16T10:23:54.886Z,6.88
2022-08-16T10:27:21.946Z,10.63
2022-08-16T10:29:19.981Z,14.57
2022-08-16T10:31:53.839Z,7.97
2022-08-16T10:34:31.130Z,9.98
2022-08-16T10:37:02.786Z,7.35
2022-08-16T10:39:41.856Z,5.97
2022-08-16T10:42:13.660Z,5.57
2022-08-16T10:44:53.813Z,6.47
2022-08-16T10:47:26.505Z,6.85
2022-08-16T10:50:03.317Z,6.38
2022-08-16T10:55:40.856Z,6.32
2022-08-16T10:58:17.485Z,5.88
2022-08-16T11:00:52.113Z,7.15
2022-08-16T11:03:46.115Z,4.95
2022-08-16T11:14:37.999Z,4.78
2022-08-16T11:17:11.377Z,5.05
2022-08-16T11:22:41.913Z,5.72
2022-08-16T11:28:36.503Z,6.63
2022-08-16T11:31:04.720Z,4.30
2022-08-16T11:36:28.249Z,15.88
2022-08-16T11:39:02.833Z,6.20
2022-08-16T11:41:36.120Z,7.78
2022-08-16T11:44:07.205Z,5.10
2022-08-16T11:46:44.990Z,4.38
2022-08-16T11:49:17.523Z,6.68
2022-08-16T11:51:49.740Z,6.55
2022-08-16T11:54:27.233Z,9.63
2022-08-16T11:57:09.348Z,6.68
2022-08-16T11:59:41.184Z,9.15
2022-08-16T12:02:30.971Z,5.32
2022-08-16T12:05:02.600Z,9.70
2022-08-16T12:07:33.363Z,8.15
2022-08-16T12:10:08.850Z,9.30
2022-08-16T12:12:39.200Z,6.13
2022-08-16T12:15:10.997Z,6.20
2022-08-16T12:17:41.707Z,5.75
2022-08-16T12:20:18.598Z,4.63
2022-08-16T12:22:51.243Z,7.32
2022-08-16T12:25:27.733Z,10.55
2022-08-16T12:27:58.507Z,5.10
2022-08-16T12:30:38.622Z,5.22
2022-08-16T12:33:13.691Z,3.90
2022-08-16T12:35:44.120Z,6.32
2022-08-16T12:38:41.284Z,5.53
2022-08-16T12:41:08.135Z,6.47
2022-08-16T12:43:44.653Z,4.50
2022-08-16T12:46:15.731Z,3.25
2022-08-16T12:48:59.046Z,6.03
2022-08-16T12:51:33.088Z,6.97
2022-08-16T12:54:22.505Z,6.53
2022-08-16T12:56:56.372Z,6.60
2022-08-16T12:59:31.032Z,3.72
2022-08-16T13:02:02.058Z,5.22
2022-08-16T13:04:33.894Z,5.57
2022-08-16T13:07:06.107Z,3.90
2022-08-16T13:09:48.007Z,7.05
2022-08-16T13:12:25.041Z,7.05
2022-08-16T13:14:56.239Z,5.68
2022-08-16T13:17:29.840Z,4.15
2022-08-16T13:20:07.549Z,6.47
2022-08-16T13:25:31.730Z,5.65
2022-08-16T13:28:05.437Z,5.15
2022-08-16T13:30:41.905Z,5.68
2022-08-16T13:33:17.491Z,5.60
2022-08-16T13:35:56.381Z,5.80
2022-08-16T13:38:31.454Z,3.85
2022-08-16T13:41:08.942Z,4.50
2022-08-16T13:43:42.963Z,5.03
2022-08-16T13:46:13.232Z,5.78
2022-08-16T13:48:45.118Z,6.82
2022-08-16T13:51:18.079Z,6.05
2022-08-16T13:53:58.108Z,6.28
2022-08-16T13:56:37.008Z,7.47
2022-08-16T13:59:21.014Z,5.47
2022-08-16T14:01:55.125Z,6.05
2022-08-16T14:04:28.026Z,3.42
2022-08-16T14:06:59.223Z,4.55
2022-08-16T14:09:30.715Z,3.80
2022-08-16T14:12:09.566Z,7.05
2022-08-16T14:14:42.927Z,8.10
2022-08-16T14:17:13.069Z,4.18
2022-08-16T14:19:44.878Z,5.75
2022-08-16T14:22:30.233Z,6.60
2022-08-16T14:25:03.443Z,3.65
2022-08-16T14:27:38.926Z,5.28
2022-08-16T14:30:19.860Z,6.68
2022-08-16T14:32:51.520Z,5.95
2022-08-16T14:35:29.206Z,5.82
2022-08-16T14:38:07.960Z,3.90
2022-08-16T14:40:38.465Z,4.95
2022-08-16T14:43:10.481Z,9.77
2022-08-16T14:45:50.682Z,5.57
2022-08-16T14:48:25.931Z,5.50
2022-08-16T14:50:56.913Z,4.88
2022-08-16T14:53:27.900Z,7.53
2022-08-16T14:55:58.685Z,4.20
2022-08-16T14:58:36.811Z,6.38
2022-08-16T15:01:11.382Z,3.45
2022-08-16T15:03:44.866Z,8.18
2022-08-16T15:06:16.316Z,4.32
2022-08-16T15:08:46.794Z,4.90
2022-08-16T15:11:17.795Z,4.78
2022-08-16T15:13:47.981Z,7.90
2022-08-16T15:16:27.719Z,3.78
2022-08-16T15:18:59.799Z,7.63
2022-08-16T15:21:31.830Z,7.88
2022-08-16T15:24:03.070Z,6.63
2022-08-16T15:26:45.397Z,5.32
2022-08-16T15:29:17.531Z,6.03
2022-08-16T15:31:51.036Z,6.70
2022-08-16T15:34:31.274Z,4.30
2022-08-16T15:37:03.260Z,22.40
2022-08-16T15:39:39.436Z,10.25
2022-08-16T15:42:27.303Z,5.45
2022-08-16T15:44:58.974Z,3.83
2022-08-16T15:47:33.521Z,7.65
2022-08-16T15:50:07.005Z,4.00
2022-08-16T15:52:40.745Z,8.88
2022-08-16T15:55:31.078Z,4.72
2022-08-16T15:58:35.612Z,5.03
2022-08-16T16:00:54.290Z,4.97
2022-08-16T16:03:28.654Z,6.65
2022-08-16T16:06:06.040Z,7.97
2022-08-16T16:08:36.331Z,7.43
2022-08-16T16:11:12.062Z,8.13
2022-08-16T16:13:42.217Z,2.88
2022-08-16T16:16:19.428Z,5.75
2022-08-16T16:18:52.903Z,6.03
2022-08-16T16:21:23.273Z,6.97
2022-08-16T16:23:57.906Z,3.80
2022-08-16T16:26:30.863Z,5.28
2022-08-16T16:29:07.922Z,7.85
2022-08-16T16:31:41.520Z,18.23
2022-08-16T16:34:16.917Z,36.25
2022-08-16T16:36:48.461Z,24.60
2022-08-16T16:39:19.452Z,8.05
2022-08-16T16:41:49.960Z,5.18
2022-08-16T16:44:31.833Z,4.53
2022-08-16T16:47:07.007Z,3.70
2022-08-16T16:49:41.912Z,7.10
2022-08-16T16:52:43.552Z,5.47
2022-08-16T16:55:09.643Z,5.72
2022-08-16T16:57:52.717Z,9.45
2022-08-16T17:00:30.207Z,7.70
2022-08-16T17:03:16.825Z,6.65
2022-08-16T17:05:57.311Z,11.52
2022-08-16T17:08:34.379Z,7.03
2022-08-16T17:11:04.742Z,7.43
2022-08-16T17:13:38.731Z,6.63
2022-08-16T17:16:18.816Z,7.25
2022-08-16T17:19:14.756Z,8.65
2022-08-16T17:21:43.308Z,5.32
2022-08-16T17:24:17.654Z,6.60
2022-08-16T17:26:49.379Z,6.50
2022-08-16T17:29:29.024Z,9.25
2022-08-16T17:32:34.452Z,7.43
2022-08-16T17:34:52.313Z,4.78
2022-08-16T17:37:34.048Z,5.85
2022-08-16T17:40:25.396Z,22.27
2022-08-16T17:43:06.972Z,12.32
2022-08-16T17:45:38.008Z,21.50
2022-08-16T17:48:08.611Z,9.23
2022-08-16T17:50:39.220Z,7.15
2022-08-16T17:53:13.184Z,7.50
2022-08-16T17:55:46.721Z,10.20
2022-08-16T17:58:22.477Z,42.08
2022-08-16T18:00:55.393Z,45.10
2022-08-16T18:03:54.377Z,9.32
2022-08-16T18:06:18.908Z,8.38
2022-08-16T18:08:57.868Z,7.43
2022-08-16T18:11:34.041Z,10.88
2022-08-16T18:14:04.414Z,13.23
2022-08-16T18:16:34.737Z,12.05
2022-08-16T18:19:05.007Z,6.45
2022-08-16T18:21:47.483Z,7.07
2022-08-16T18:24:21.386Z,8.85
2022-08-16T18:26:51.499Z,8.45
2022-08-16T18:31:51.911Z,7.30
2022-08-16T18:34:22.240Z,5.30
2022-08-16T18:36:52.357Z,8.10
2022-08-16T18:41:55.159Z,9.02
2022-08-16T18:47:03.467Z,5.55
2022-08-16T18:49:33.579Z,8.25
2022-08-16T18:55:02.386Z,7.05
2022-08-16T18:57:27.152Z,5.97
2022-08-16T19:05:22.688Z,7.85
2022-08-16T19:07:52.837Z,9.43
2022-08-16T19:12:55.708Z,6.88
2022-08-16T19:15:31.402Z,15.02
2022-08-16T19:18:01.685Z,109.35
2022-08-16T19:20:32.947Z,19.40
2022-08-16T19:23:06.396Z,8.93
2022-08-16T19:25:49.702Z,9.82
2022-08-16T19:28:49.934Z,7.90
2022-08-16T19:31:18.441Z,9.07
2022-08-16T19:33:54.504Z,6.07
2022-08-16T19:36:31.980Z,6.95
2022-08-16T19:39:09.042Z,7.32
2022-08-16T19:41:53.625Z,8.32
2022-08-16T19:44:24.521Z,9.35
2022-08-16T19:46:55.050Z,9.10
2022-08-16T19:49:25.305Z,5.45
2022-08-16T19:54:25.405Z,7.88
2022-08-16T19:56:58.256Z,7.40
2022-08-16T19:59:39.504Z,7.70
2022-08-16T20:02:35.588Z,8.38
2022-08-16T20:05:08.409Z,7.55
2022-08-16T20:07:38.543Z,8.60
2022-08-16T20:12:42.071Z,8.88
2022-08-16T20:15:15.952Z,7.13
2022-08-16T20:17:47.208Z,7.72
2022-08-16T20:20:26.175Z,7.85
2022-08-16T20:22:57.701Z,9.90
2022-08-16T20:25:32.963Z,7.13
2022-08-16T20:28:06.326Z,8.10
2022-08-16T20:30:36.547Z,10.20
2022-08-16T20:33:14.319Z,9.55
2022-08-16T20:35:45.474Z,12.70
2022-08-16T20:38:16.133Z,11.30
2022-08-16T20:40:46.319Z,7.57
2022-08-16T20:43:19.381Z,10.18
2022-08-16T20:45:50.296Z,9.10
2022-08-16T20:48:20.555Z,30.95
2022-08-16T20:55:51.157Z,11.88
2022-08-16T20:58:23.935Z,10.00
2022-08-16T21:00:54.241Z,10.65
2022-08-16T21:03:24.569Z,9.90
2022-08-16T21:08:51.143Z,9.82
2022-08-16T21:11:16.537Z,8.32
2022-08-16T21:13:49.245Z,10.43
2022-08-16T21:16:20.886Z,10.82
2022-08-16T21:18:51.146Z,11.90
2022-08-16T21:21:23.151Z,25.55
2022-08-16T21:24:02.007Z,15.88
2022-08-16T21:26:32.346Z,12.77
2022-08-16T21:29:05.210Z,13.32
2022-08-16T21:31:38.174Z,10.65
2022-08-16T21:34:08.462Z,15.98
2022-08-16T21:36:39.100Z,12.25
2022-08-16T21:39:09.632Z,15.20
2022-08-16T21:41:40.077Z,15.52
2022-08-16T21:44:13.020Z,12.80
2022-08-16T21:46:43.345Z,10.82
2022-08-16T21:51:43.421Z,15.70
2022-08-16T21:54:13.864Z,16.48
2022-08-16T21:56:44.156Z,15.20
2022-08-16T22:01:47.350Z,16.45
2022-08-16T22:04:37.757Z,17.67
2022-08-16T22:07:07.949Z,15.02
2022-08-16T22:09:38.454Z,17.77
2022-08-16T22:12:09.632Z,18.65
2022-08-16T22:14:42.371Z,20.85
2022-08-16T22:17:12.669Z,18.92
2022-08-16T22:22:14.197Z,19.08
2022-08-16T22:24:44.429Z,23.55
2022-08-16T22:27:14.828Z,21.75
2022-08-16T22:29:47.563Z,20.50
2022-08-16T22:32:17.773Z,22.92
2022-08-16T22:34:47.949Z,24.33
2022-08-16T22:37:18.241Z,28.05
2022-08-16T22:42:18.766Z,23.33
2022-08-16T22:44:52.014Z,23.23
2022-08-16T22:47:22.250Z,22.15
2022-08-16T22:49:52.395Z,21.58
2022-08-16T22:52:48.787Z,26.63
2022-08-16T22:55:13.219Z,26.35
2022-08-16T22:57:43.535Z,26.17
2022-08-16T23:02:59.832Z,31.08
2022-08-16T23:05:32.496Z,29.98
2022-08-16T23:08:03.098Z,28.40
2022-08-16T23:10:33.655Z,26.73
2022-08-16T23:13:07.302Z,30.40
2022-08-16T23:15:46.727Z,28.65
2022-08-16T23:18:26.816Z,27.10
2022-08-16T23:21:00.447Z,26.27
2022-08-16T23:23:31.529Z,30.52
2022-08-16T23:26:02.452Z,34.13
2022-08-16T23:28:52.382Z,31.45
2022-08-16T23:31:25.022Z,33.33
2022-08-16T23:33:55.291Z,30.80
2022-08-16T23:36:25.451Z,30.52
2022-08-16T23:38:55.729Z,30.88
2022-08-16T23:41:25.841Z,30.45
2022-08-16T23:43:56.034Z,36.20
2022-08-16T23:46:29.289Z,34.28
2022-08-16T23:50:01.988Z,34.50
2022-08-16T23:51:49.878Z,30.50
2022-08-16T23:54:22.609Z,30.88
2022-08-16T23:56:52.658Z,28.77
2022-08-16T23:59:22.745Z,28.92
